Time;durP1;ratioP1;P1;durP2;ratioP2;P2;SDS_P1;SDS_P2;PMS_P1;PMS_P2;Temp;Humidity;BMP_temperature;BMP_pressure;BME280_temperature;BME280_humidity;BME280_pressure;Samples;Min_cycle;Max_cycle;Signal;HPM_P1;HPM_P2
2023/05/06 00:02:12;;;;;;;11.85;8.25;;;13.00;99.90;;;;;;5091712;28;20055;-70
2023/05/06 00:04:38;;;;;;;11.75;6.40;;;12.90;99.90;;;;;;5091704;28;20039;-70
2023/05/06 00:07:04;;;;;;;13.85;7.38;;;13.00;99.90;;;;;;5090108;28;20507;-70
2023/05/06 00:09:29;;;;;;;10.32;7.35;;;12.90;99.90;;;;;;5091784;28;20040;-70
2023/05/06 00:11:55;;;;;;;11.23;7.60;;;12.90;99.90;;;;;;5091591;28;20406;-70
2023/05/06 00:14:21;;;;;;;9.90;7.38;;;12.90;99.90;;;;;;5090242;28;20040;-70
2023/05/06 00:16:47;;;;;;;12.93;7.53;;;12.80;99.90;;;;;;5090058;28;20047;-69
2023/05/06 00:19:12;;;;;;;10.68;7.50;;;12.80;99.90;;;;;;5090235;28;20036;-70
2023/05/06 00:21:38;;;;;;;10.18;8.10;;;12.80;99.90;;;;;;5091354;28;20050;-70
2023/05/06 00:24:04;;;;;;;12.70;8.30;;;12.90;99.90;;;;;;5090152;28;20044;-70
2023/05/06 00:26:30;;;;;;;15.23;7.50;;;12.80;99.90;;;;;;5089947;28;20036;-70
2023/05/06 00:28:55;;;;;;;9.57;7.25;;;12.80;99.90;;;;;;5091190;28;20044;-70
2023/05/06 00:31:21;;;;;;;11.55;8.77;;;12.80;99.90;;;;;;5090085;28;20043;-69
2023/05/06 00:33:46;;;;;;;8.32;6.50;;;12.80;99.90;;;;;;5091405;28;20044;-70
2023/05/06 00:36:12;;;;;;;16.05;7.35;;;12.80;99.90;;;;;;5091151;28;20032;-70
2023/05/06 00:38:38;;;;;;;11.73;7.57;;;12.70;99.90;;;;;;5091586;28;20036;-69
2023/05/06 00:41:03;;;;;;;10.73;7.68;;;12.70;99.90;;;;;;5091389;28;20044;-69
2023/05/06 00:43:29;;;;;;;10.40;7.15;;;12.70;99.90;;;;;;5091357;28;20078;-70
2023/05/06 00:45:55;;;;;;;10.90;7.47;;;12.60;99.90;;;;;;5095068;28;20487;-69
2023/05/06 00:48:20;;;;;;;10.88;6.93;;;12.60;99.90;;;;;;5094877;28;20032;-69
2023/05/06 00:50:46;;;;;;;9.68;7.30;;;12.60;99.90;;;;;;5095009;28;20395;-69
2023/05/06 00:53:12;;;;;;;10.82;7.47;;;12.60;99.90;;;;;;5095014;28;20028;-69
2023/05/06 00:55:38;;;;;;;9.15;6.70;;;12.50;99.90;;;;;;5094980;28;20035;-70
2023/05/06 00:58:04;;;;;;;10.45;6.70;;;12.50;99.90;;;;;;5094800;28;20039;-69
2023/05/06 01:00:31;;;;;;;12.98;7.93;;;12.50;99.90;;;;;;5094912;28;20040;-69
2023/05/06 01:02:56;;;;;;;10.20;7.22;;;12.40;99.90;;;;;;5093418;28;20040;-69
2023/05/06 01:05:24;;;;;;;8.80;6.18;;;12.40;99.90;;;;;;5094543;28;20451;-69
2023/05/06 01:08:12;;;;;;;9.70;6.68;;;12.40;99.90;;;;;;5094670;28;20028;-70
2023/05/06 01:10:47;;;;;;;8.57;6.10;;;12.30;99.90;;;;;;5094724;28;20032;-69
2023/05/06 01:13:20;;;;;;;8.40;6.00;;;12.20;99.90;;;;;;5094528;28;20036;-69
2023/05/06 01:15:51;;;;;;;11.63;6.95;;;12.20;99.90;;;;;;5093160;28;20293;-70
2023/05/06 01:18:21;;;;;;;8.43;6.75;;;12.10;99.90;;;;;;5094595;28;20044;-70
2023/05/06 01:20:49;;;;;;;7.63;5.18;;;12.10;99.90;;;;;;5094601;28;20071;-70
2023/05/06 01:23:16;;;;;;;9.40;6.03;;;12.00;99.90;;;;;;5093278;28;20043;-69
2023/05/06 01:25:42;;;;;;;10.20;6.00;;;12.00;99.90;;;;;;5092959;28;20039;-69
2023/05/06 01:28:11;;;;;;;7.47;5.57;;;12.00;99.90;;;;;;5092719;28;20090;-70
2023/05/06 01:30:59;;;;;;;8.40;6.22;;;12.00;99.90;;;;;;5076063;28;20058;-69
2023/05/06 01:33:36;;;;;;;9.57;6.55;;;11.90;99.90;;;;;;5094096;28;20518;-69
2023/05/06 01:36:14;;;;;;;9.73;6.45;;;11.90;99.90;;;;;;5094096;28;20035;-70
2023/05/06 01:38:46;;;;;;;8.45;7.05;;;11.90;99.90;;;;;;5093929;28;20046;-68
2023/05/06 01:41:16;;;;;;;7.65;6.30;;;11.90;99.90;;;;;;5093984;28;20514;-70
2023/05/06 01:43:45;;;;;;;9.55;7.05;;;11.90;99.90;;;;;;5092616;28;20439;-69
2023/05/06 01:46:15;;;;;;;17.40;6.88;;;11.90;99.90;;;;;;5093908;28;20036;-70
2023/05/06 01:48:44;;;;;;;11.35;6.90;;;11.90;99.90;;;;;;5093707;28;20048;-70
2023/05/06 01:51:10;;;;;;;9.65;6.80;;;11.90;99.90;;;;;;5093610;28;20039;-70
2023/05/06 01:53:35;;;;;;;10.02;7.00;;;12.00;99.90;;;;;;5093759;28;20403;-71
2023/05/06 01:56:01;;;;;;;9.73;6.50;;;11.90;99.90;;;;;;5093028;28;20040;-70
2023/05/06 01:58:26;;;;;;;8.32;6.60;;;11.90;99.90;;;;;;5093537;28;20036;-70
2023/05/06 02:00:52;;;;;;;7.85;6.25;;;11.90;99.90;;;;;;5092422;28;20419;-70
2023/05/06 02:03:17;;;;;;;9.68;7.57;;;11.90;99.90;;;;;;5093512;28;20059;-70
2023/05/06 02:05:43;;;;;;;10.43;6.18;;;11.90;99.90;;;;;;5093372;28;20396;-69
2023/05/06 02:08:09;;;;;;;8.25;6.35;;;11.80;99.90;;;;;;5093512;28;20039;-70
2023/05/06 02:10:34;;;;;;;9.07;7.00;;;11.80;99.90;;;;;;5093668;28;20489;-70
2023/05/06 02:13:00;;;;;;;8.65;6.57;;;11.80;99.90;;;;;;5091987;28;20115;-70
2023/05/06 02:15:26;;;;;;;10.48;7.45;;;11.90;99.90;;;;;;5093354;28;20059;-70
2023/05/06 02:17:51;;;;;;;8.82;6.80;;;11.80;99.90;;;;;;5093157;28;20032;-70
2023/05/06 02:20:17;;;;;;;14.57;7.63;;;11.80;99.90;;;;;;5093208;28;20093;-70
2023/05/06 02:22:42;;;;;;;10.48;7.07;;;11.80;99.90;;;;;;5093366;28;20463;-70
2023/05/06 02:25:08;;;;;;;9.88;7.55;;;11.80;99.90;;;;;;5091804;28;20039;-70
2023/05/06 02:27:34;;;;;;;10.10;6.93;;;11.80;99.90;;;;;;5091648;28;20052;-70
2023/05/06 02:29:59;;;;;;;11.32;7.60;;;11.70;99.90;;;;;;5093115;28;20122;-69
2023/05/06 02:32:25;;;;;;;9.45;7.20;;;11.70;99.90;;;;;;5092991;28;20035;-69
2023/05/06 02:34:52;;;;;;;11.32;7.65;;;11.70;99.90;;;;;;5093001;28;20115;-70
2023/05/06 02:37:17;;;;;;;13.35;7.95;;;11.70;99.90;;;;;;5092820;28;20044;-69
2023/05/06 02:39:43;;;;;;;10.18;7.07;;;11.70;99.90;;;;;;5093127;28;20036;-69
2023/05/06 02:42:12;;;;;;;7.45;6.45;;;11.70;99.90;;;;;;5092909;28;20039;-69
2023/05/06 02:44:38;;;;;;;13.30;7.40;;;11.60;99.90;;;;;;5092891;28;20075;-69
2023/05/06 02:47:03;;;;;;;10.60;6.78;;;11.60;99.90;;;;;;5092555;28;20082;-69
2023/05/06 02:49:29;;;;;;;13.32;7.30;;;11.60;99.90;;;;;;5092592;28;20057;-68
2023/05/06 02:51:54;;;;;;;10.35;7.45;;;11.60;99.90;;;;;;5092688;28;20396;-70
2023/05/06 02:54:20;;;;;;;10.48;7.30;;;11.60;99.90;;;;;;5092617;28;20036;-69
2023/05/06 02:56:46;;;;;;;12.07;8.18;;;11.50;99.90;;;;;;5091055;28;20089;-69
2023/05/06 02:59:12;;;;;;;11.98;7.72;;;11.50;99.90;;;;;;5091669;28;20055;-68
2023/05/06 03:01:37;;;;;;;9.23;7.20;;;11.50;99.90;;;;;;5092494;28;20032;-69
2023/05/06 03:04:03;;;;;;;11.20;8.35;;;11.50;99.90;;;;;;5092486;28;20116;-70
2023/05/06 03:06:30;;;;;;;11.27;7.60;;;11.40;99.90;;;;;;5092445;28;20083;-70
2023/05/06 03:08:56;;;;;;;11.13;7.35;;;11.40;99.90;;;;;;5092440;28;20039;-70
2023/05/06 03:11:21;;;;;;;11.88;7.28;;;11.40;99.90;;;;;;5092184;28;20040;-69
2023/05/06 03:13:47;;;;;;;8.80;7.45;;;11.40;99.90;;;;;;5092387;28;20071;-70
2023/05/06 03:16:13;;;;;;;10.13;7.22;;;11.40;99.90;;;;;;5092138;28;20115;-70
2023/05/06 03:18:39;;;;;;;7.88;6.72;;;11.30;99.90;;;;;;5091977;28;20040;-69
2023/05/06 03:21:04;;;;;;;9.77;7.57;;;11.30;99.90;;;;;;5092345;28;20089;-70
2023/05/06 03:23:30;;;;;;;9.88;7.43;;;11.30;99.90;;;;;;5092270;28;20036;-70
2023/05/06 03:25:56;;;;;;;9.75;7.47;;;11.30;99.90;;;;;;5090852;28;20040;-70
2023/05/06 03:28:22;;;;;;;10.50;7.57;;;11.30;99.90;;;;;;5091986;28;20040;-70
2023/05/06 03:30:47;;;;;;;11.60;8.63;;;11.20;99.90;;;;;;5092065;28;20036;-70
2023/05/06 03:33:13;;;;;;;10.45;7.93;;;11.20;99.90;;;;;;5094608;28;20042;-69
2023/05/06 03:35:39;;;;;;;8.65;6.57;;;11.20;99.90;;;;;;5110307;28;20032;-70
2023/05/06 03:38:05;;;;;;;6.60;4.75;;;11.20;99.90;;;;;;5112099;28;20047;-69
2023/05/06 03:40:31;;;;;;;4.78;4.20;;;11.10;99.90;;;;;;5112177;28;20046;-70
2023/05/06 03:42:56;;;;;;;7.30;5.97;;;11.10;99.90;;;;;;5112215;28;20499;-70
2023/05/06 03:45:22;;;;;;;7.85;6.30;;;11.00;99.90;;;;;;5112151;28;20094;-69
2023/05/06 03:47:47;;;;;;;8.68;7.47;;;11.00;99.90;;;;;;5111945;28;20165;-70
2023/05/06 03:50:13;;;;;;;8.52;6.78;;;10.90;99.90;;;;;;5112345;28;20039;-69
2023/05/06 03:52:39;;;;;;;9.55;6.55;;;11.00;99.90;;;;;;5111991;28;20526;-70
2023/05/06 03:55:05;;;;;;;7.72;6.55;;;10.90;99.90;;;;;;5112059;28;20035;-69
2023/05/06 03:57:31;;;;;;;8.82;6.85;;;10.90;99.90;;;;;;5112028;28;20035;-70
2023/05/06 03:59:56;;;;;;;10.93;7.10;;;10.90;99.90;;;;;;5112069;28;20057;-70
2023/05/06 04:02:22;;;;;;;13.40;7.32;;;10.90;99.90;;;;;;5110463;28;20402;-70
2023/05/06 04:04:48;;;;;;;12.00;8.32;;;10.90;99.90;;;;;;5112148;28;20140;-68
2023/05/06 04:07:14;;;;;;;13.80;8.93;;;10.90;99.90;;;;;;5111787;28;20122;-69
2023/05/06 04:09:39;;;;;;;13.35;8.43;;;11.00;99.90;;;;;;5111894;28;20032;-69
2023/05/06 04:12:05;;;;;;;17.05;8.90;;;11.00;99.90;;;;;;5110554;28;20044;-68
2023/05/06 04:14:31;;;;;;;14.70;8.60;;;11.00;99.90;;;;;;5111928;28;20035;-69
2023/05/06 04:16:57;;;;;;;14.45;9.05;;;11.00;99.90;;;;;;5110567;28;20403;-69
2023/05/06 04:19:22;;;;;;;15.85;8.55;;;11.00;99.90;;;;;;5113375;28;20047;-69
2023/05/06 04:21:48;;;;;;;10.07;7.22;;;11.10;99.90;;;;;;5116104;28;20043;-69
2023/05/06 04:24:17;;;;;;;11.65;7.55;;;11.10;99.90;;;;;;5115851;28;20122;-69
2023/05/06 04:26:42;;;;;;;9.90;7.55;;;11.10;99.90;;;;;;5114634;28;20092;-69
2023/05/06 04:29:08;;;;;;;12.43;9.15;;;11.10;99.90;;;;;;5115777;28;20047;-69
2023/05/06 04:31:34;;;;;;;14.00;9.77;;;11.10;99.90;;;;;;5114401;28;20074;-69
2023/05/06 04:34:01;;;;;;;12.93;9.00;;;11.10;99.90;;;;;;5115989;28;20081;-69
2023/05/06 04:36:27;;;;;;;11.68;8.98;;;11.10;99.90;;;;;;5115753;28;20071;-68
2023/05/06 04:38:52;;;;;;;14.40;8.55;;;11.10;99.90;;;;;;5115714;28;20100;-69
2023/05/06 04:41:19;;;;;;;11.75;8.48;;;11.10;99.90;;;;;;5115615;28;20038;-69
2023/05/06 04:43:45;;;;;;;12.75;8.73;;;11.20;99.90;;;;;;5114376;28;20039;-69
2023/05/06 04:46:10;;;;;;;11.88;8.00;;;11.20;99.90;;;;;;5115338;28;20636;-69
2023/05/06 04:48:37;;;;;;;10.27;7.10;;;11.20;99.90;;;;;;5114157;28;20511;-69
2023/05/06 04:51:04;;;;;;;8.45;6.63;;;11.20;99.90;;;;;;5115612;28;20031;-69
2023/05/06 04:53:30;;;;;;;6.03;5.43;;;11.30;99.90;;;;;;5113953;28;20082;-69
2023/05/06 04:55:55;;;;;;;8.18;7.00;;;11.20;99.90;;;;;;5113921;28;20071;-69
2023/05/06 04:58:21;;;;;;;6.43;5.20;;;11.30;99.90;;;;;;5113812;28;20046;-68
2023/05/06 05:00:46;;;;;;;8.32;6.28;;;11.30;99.90;;;;;;5115106;28;20122;-69
2023/05/06 05:03:12;;;;;;;7.30;5.97;;;11.30;99.90;;;;;;5115337;28;20115;-69
2023/05/06 05:05:38;;;;;;;6.93;5.63;;;11.30;99.90;;;;;;5115041;28;20118;-69
2023/05/06 05:08:03;;;;;;;6.45;5.20;;;11.30;99.90;;;;;;5114982;28;20486;-69
2023/05/06 05:10:29;;;;;;;6.30;5.45;;;11.30;99.90;;;;;;5114998;28;20028;-68
2023/05/06 05:12:55;;;;;;;7.50;5.28;;;11.30;99.90;;;;;;5114945;28;20067;-69
2023/05/06 05:15:20;;;;;;;6.38;5.55;;;11.30;99.90;;;;;;5114742;28;20495;-69
2023/05/06 05:17:46;;;;;;;6.68;5.30;;;11.30;99.90;;;;;;5114733;28;20036;-69
2023/05/06 05:20:12;;;;;;;6.97;5.93;;;11.30;99.90;;;;;;5115087;28;20032;-69
2023/05/06 05:22:37;;;;;;;6.90;6.10;;;11.40;99.90;;;;;;5114824;28;20038;-69
2023/05/06 05:25:03;;;;;;;7.80;6.63;;;11.40;99.90;;;;;;5113597;28;20144;-69
2023/05/06 05:27:29;;;;;;;7.35;6.55;;;11.40;99.90;;;;;;5114658;28;20035;-69
2023/05/06 05:29:55;;;;;;;8.35;7.28;;;11.50;99.90;;;;;;5114151;28;20043;-70
2023/05/06 05:32:21;;;;;;;8.05;6.60;;;11.50;99.90;;;;;;5114015;28;20040;-68
2023/05/06 05:34:46;;;;;;;8.63;7.65;;;11.50;99.90;;;;;;5114785;28;20037;-69
2023/05/06 05:37:12;;;;;;;9.18;7.50;;;11.60;99.90;;;;;;5114332;28;20034;-69
2023/05/06 05:39:38;;;;;;;7.80;6.97;;;11.50;99.90;;;;;;5114550;28;20074;-68
2023/05/06 05:42:03;;;;;;;11.85;7.18;;;11.60;99.90;;;;;;5114325;28;20130;-69
2023/05/06 05:44:29;;;;;;;9.25;7.55;;;11.60;99.90;;;;;;5114320;28;20047;-69
2023/05/06 05:46:55;;;;;;;9.15;7.22;;;11.60;99.90;;;;;;5114136;28;20537;-69
2023/05/06 05:49:20;;;;;;;10.20;7.93;;;11.60;99.90;;;;;;5114402;28;20122;-68
2023/05/06 05:51:46;;;;;;;8.55;7.72;;;11.70;99.90;;;;;;5113015;28;20082;-69
2023/05/06 05:54:11;;;;;;;9.82;8.55;;;11.70;99.90;;;;;;5114294;28;20499;-69
2023/05/06 05:56:37;;;;;;;10.02;8.95;;;11.80;99.90;;;;;;5113957;28;20507;-69
2023/05/06 05:59:02;;;;;;;13.02;8.93;;;11.80;99.90;;;;;;5112961;28;20043;-69
2023/05/06 06:01:28;;;;;;;15.80;9.48;;;11.80;99.90;;;;;;5114170;28;20097;-69
2023/05/06 06:03:54;;;;;;;12.40;9.68;;;11.80;99.90;;;;;;5112729;28;20126;-70
2023/05/06 06:06:20;;;;;;;12.23;9.90;;;11.80;99.90;;;;;;5112828;28;20047;-69
2023/05/06 06:08:46;;;;;;;13.88;9.93;;;11.80;99.90;;;;;;5113791;28;20458;-69
2023/05/06 06:11:11;;;;;;;16.13;11.05;;;11.90;99.90;;;;;;5113773;28;20057;-69
2023/05/06 06:13:37;;;;;;;12.73;10.10;;;11.90;99.90;;;;;;5113749;28;20032;-69
2023/05/06 06:16:03;;;;;;;13.00;9.95;;;11.90;99.90;;;;;;5113638;28;20540;-69
2023/05/06 06:18:29;;;;;;;12.85;10.63;;;11.90;99.90;;;;;;5113770;28;20088;-69
2023/05/06 06:20:54;;;;;;;17.60;11.98;;;12.00;99.90;;;;;;5113807;28;20036;-69
2023/05/06 06:23:20;;;;;;;11.70;9.43;;;12.10;99.90;;;;;;5113638;28;20045;-69
2023/05/06 06:25:46;;;;;;;18.75;12.48;;;12.10;99.90;;;;;;5113568;28;20105;-69
2023/05/06 06:28:11;;;;;;;14.07;9.77;;;12.10;99.90;;;;;;5113293;28;20035;-69
2023/05/06 06:30:37;;;;;;;11.68;9.57;;;12.20;99.90;;;;;;5113706;28;20040;-69
2023/05/06 06:33:02;;;;;;;13.80;11.27;;;12.20;99.90;;;;;;5113345;28;20392;-68
2023/05/06 06:35:28;;;;;;;14.82;12.50;;;12.20;99.90;;;;;;5113380;28;20032;-69
2023/05/06 06:37:53;;;;;;;17.88;13.02;;;12.30;99.90;;;;;;5111964;28;20520;-69
2023/05/06 06:40:20;;;;;;;16.75;12.15;;;12.30;99.90;;;;;;5113773;28;20035;-69
2023/05/06 06:42:46;;;;;;;17.88;13.55;;;12.30;99.90;;;;;;5112887;28;20060;-69
2023/05/06 06:45:13;;;;;;;16.88;13.05;;;12.40;99.90;;;;;;5113064;28;20031;-69
2023/05/06 06:47:38;;;;;;;15.93;12.45;;;12.30;99.90;;;;;;5111774;28;20040;-70
2023/05/06 06:50:05;;;;;;;16.13;11.65;;;12.30;99.90;;;;;;5111701;28;20054;-69
2023/05/06 06:52:31;;;;;;;17.83;12.40;;;12.30;99.90;;;;;;5102018;28;20082;-68
2023/05/06 06:54:56;;;;;;;20.45;12.90;;;12.40;99.90;;;;;;5102244;28;20052;-69
2023/05/06 06:57:22;;;;;;;18.58;12.85;;;12.30;99.90;;;;;;5106812;28;20036;-69
2023/05/06 06:59:50;;;;;;;15.38;11.63;;;12.30;99.90;;;;;;5113070;28;20047;-69
2023/05/06 07:02:16;;;;;;;14.18;11.18;;;12.30;99.90;;;;;;5113069;28;20043;-69
2023/05/06 07:04:41;;;;;;;15.95;11.52;;;12.30;99.90;;;;;;5112693;28;20517;-69
2023/05/06 07:07:07;;;;;;;17.17;11.00;;;12.40;99.90;;;;;;5112462;28;20115;-68
2023/05/06 07:09:32;;;;;;;16.30;12.10;;;12.30;99.90;;;;;;5111398;28;20054;-69
2023/05/06 07:11:58;;;;;;;20.35;12.82;;;12.30;99.90;;;;;;5112564;28;20383;-69
2023/05/06 07:14:24;;;;;;;19.95;13.70;;;12.30;99.90;;;;;;5112849;28;20114;-69
2023/05/06 07:16:50;;;;;;;22.35;13.18;;;12.30;99.90;;;;;;5112304;28;20503;-68
2023/05/06 07:19:15;;;;;;;19.65;13.25;;;12.30;99.90;;;;;;5112682;28;20042;-70
2023/05/06 07:21:41;;;;;;;21.25;14.98;;;12.30;99.90;;;;;;5109238;28;20110;-68
2023/05/06 07:24:07;;;;;;;19.67;14.30;;;12.40;99.90;;;;;;5094538;28;20485;-69
2023/05/06 07:26:36;;;;;;;18.75;13.50;;;12.40;99.90;;;;;;5091804;28;20051;-69
2023/05/06 07:29:03;;;;;;;18.25;13.35;;;12.40;99.90;;;;;;5092230;28;20051;-69
2023/05/06 07:31:31;;;;;;;20.90;14.25;;;12.50;99.90;;;;;;5092151;28;20044;-69
2023/05/06 07:33:57;;;;;;;21.85;14.18;;;12.50;99.90;;;;;;5102536;28;20043;-69
2023/05/06 07:36:23;;;;;;;18.42;12.95;;;12.50;99.90;;;;;;5112310;28;20035;-69
2023/05/06 07:38:49;;;;;;;18.88;13.80;;;12.60;99.90;;;;;;5111618;28;20043;-69
2023/05/06 07:41:15;;;;;;;23.17;15.23;;;12.60;99.90;;;;;;5111822;28;20583;-69
2023/05/06 07:43:41;;;;;;;19.83;14.30;;;12.60;99.90;;;;;;5112116;28;20039;-69
2023/05/06 07:46:06;;;;;;;21.10;14.48;;;12.70;99.90;;;;;;5112102;28;20055;-69
2023/05/06 07:48:32;;;;;;;22.27;15.70;;;12.70;99.90;;;;;;5112011;28;20036;-68
2023/05/06 07:50:58;;;;;;;23.38;16.05;;;12.70;99.90;;;;;;5112279;28;20388;-69
2023/05/06 07:53:25;;;;;;;24.23;15.07;;;12.80;99.90;;;;;;5111275;28;20039;-68
2023/05/06 07:55:51;;;;;;;25.75;16.20;;;12.80;99.90;;;;;;5111891;28;20028;-69
2023/05/06 07:58:17;;;;;;;23.83;15.43;;;12.80;99.90;;;;;;5112181;28;20082;-69
2023/05/06 08:00:43;;;;;;;26.25;17.83;;;12.80;99.90;;;;;;5112079;28;20457;-69
2023/05/06 08:03:09;;;;;;;26.30;16.48;;;12.90;99.90;;;;;;5112010;28;20043;-69
2023/05/06 08:05:34;;;;;;;26.17;18.30;;;12.90;99.90;;;;;;5112003;28;20105;-69
2023/05/06 08:08:00;;;;;;;27.02;16.80;;;12.90;99.90;;;;;;5111818;28;20525;-69
2023/05/06 08:10:26;;;;;;;24.95;17.10;;;12.90;99.90;;;;;;5111963;28;20032;-69
2023/05/06 08:12:51;;;;;;;23.92;17.13;;;12.90;99.90;;;;;;5111882;28;20052;-73
2023/05/06 08:15:17;;;;;;;29.30;17.90;;;13.00;99.90;;;;;;5110551;28;20036;-72
2023/05/06 08:17:42;;;;;;;24.08;16.48;;;13.20;99.90;;;;;;5111288;28;20036;-72
2023/05/06 08:20:09;;;;;;;29.20;16.75;;;13.40;99.90;;;;;;5110599;28;20092;-72
2023/05/06 08:22:34;;;;;;;23.77;16.05;;;13.50;99.90;;;;;;5110470;28;20048;-74
2023/05/06 08:25:00;;;;;;;29.50;18.83;;;13.80;99.90;;;;;;5110621;28;20411;-73
2023/05/06 08:27:26;;;;;;;30.30;17.88;;;14.20;99.90;;;;;;5111810;28;20042;-74
2023/05/06 08:29:51;;;;;;;27.98;15.93;;;14.70;99.90;;;;;;5110412;28;20398;-73
2023/05/06 08:32:17;;;;;;;22.83;15.63;;;15.10;99.90;;;;;;5085478;28;20040;-73
2023/05/06 08:34:43;;;;;;;18.30;13.73;;;15.40;99.90;;;;;;5100851;28;20032;-73
2023/05/06 08:37:08;;;;;;;20.88;11.27;;;15.80;99.90;;;;;;5111381;28;20506;-72
2023/05/06 08:39:34;;;;;;;18.20;11.45;;;16.10;99.90;;;;;;5110488;28;20130;-73
2023/05/06 08:42:01;;;;;;;15.52;10.30;;;16.40;99.90;;;;;;5111495;28;20044;-73
2023/05/06 08:44:28;;;;;;;16.67;11.73;;;16.70;99.90;;;;;;5108382;28;20032;-73
2023/05/06 08:46:54;;;;;;;16.80;11.35;;;16.90;99.90;;;;;;5111212;28;20511;-73
2023/05/06 08:49:20;;;;;;;18.05;12.75;;;17.10;99.90;;;;;;5111516;28;20040;-73
2023/05/06 08:51:48;;;;;;;18.77;12.23;;;17.20;99.90;;;;;;5110318;28;20038;-73
2023/05/06 08:54:14;;;;;;;17.90;12.18;;;17.20;99.90;;;;;;5105684;28;20028;-73
2023/05/06 08:56:45;;;;;;;16.98;11.70;;;17.20;99.90;;;;;;5099403;28;20035;-73
2023/05/06 08:59:12;;;;;;;18.38;11.50;;;17.30;99.90;;;;;;5097945;28;20031;-73
2023/05/06 09:01:38;;;;;;;17.85;11.55;;;17.50;99.90;;;;;;5098778;28;20122;-73
2023/05/06 09:04:06;;;;;;;15.38;11.18;;;17.40;99.90;;;;;;5072965;28;20052;-73
2023/05/06 09:06:33;;;;;;;22.48;13.52;;;17.60;99.90;;;;;;5092561;28;20111;-73
2023/05/06 09:08:58;;;;;;;17.30;11.98;;;17.60;99.90;;;;;;5093246;28;20040;-73
2023/05/06 09:11:29;;;;;;;16.75;12.63;;;17.70;99.90;;;;;;5093211;28;20067;-73
2023/05/06 09:14:14;;;;;;;17.52;11.65;;;17.80;99.90;;;;;;5100161;28;20032;-73
2023/05/06 09:16:44;;;;;;;17.73;13.32;;;18.00;99.90;;;;;;5094188;28;20040;-73
2023/05/06 09:19:11;;;;;;;19.10;12.65;;;18.30;99.90;;;;;;5093075;28;20047;-75
2023/05/06 09:21:42;;;;;;;18.98;12.88;;;18.50;99.90;;;;;;5093023;28;20040;-74
2023/05/06 09:24:09;;;;;;;17.85;13.00;;;18.30;99.90;;;;;;5092994;28;20572;-73
2023/05/06 09:26:37;;;;;;;18.45;13.55;;;18.30;99.90;;;;;;5092649;28;20052;-73
2023/05/06 09:29:03;;;;;;;16.30;12.05;;;18.20;99.90;;;;;;5092851;28;20055;-74
2023/05/06 09:31:30;;;;;;;17.48;12.48;;;18.20;99.90;;;;;;5092645;28;20047;-72
2023/05/06 09:33:57;;;;;;;16.85;12.25;;;18.20;99.90;;;;;;5095577;28;20083;-72
2023/05/06 09:36:25;;;;;;;15.75;11.55;;;18.20;99.90;;;;;;5103173;28;20054;-73
2023/05/06 09:38:52;;;;;;;16.73;11.98;;;18.20;99.90;;;;;;5083740;28;20454;-73
2023/05/06 09:41:20;;;;;;;15.90;11.95;;;18.30;99.90;;;;;;5092632;28;20043;-74
2023/05/06 09:43:47;;;;;;;14.95;10.77;;;18.30;99.90;;;;;;5092628;28;20036;-73
2023/05/06 09:46:15;;;;;;;18.20;11.20;;;18.20;99.90;;;;;;5092283;28;20079;-73
2023/05/06 09:48:41;;;;;;;17.10;10.93;;;18.20;99.90;;;;;;5092394;28;20043;-74
2023/05/06 09:51:07;;;;;;;14.95;10.68;;;18.30;99.90;;;;;;5092305;28;20040;-74
2023/05/06 09:53:37;;;;;;;16.30;11.00;;;18.40;99.90;;;;;;5092444;28;20123;-74
2023/05/06 09:56:07;;;;;;;12.63;10.02;;;18.40;99.90;;;;;;5092324;28;20055;-74
2023/05/06 09:58:34;;;;;;;15.43;10.50;;;18.40;99.90;;;;;;5075863;28;20067;-73
2023/05/06 10:01:02;;;;;;;14.52;10.85;;;18.20;99.90;;;;;;5075466;28;20036;-73
2023/05/06 10:03:29;;;;;;;13.60;10.05;;;18.30;99.90;;;;;;5092386;28;20044;-73
2023/05/06 10:06:01;;;;;;;14.07;9.52;;;18.40;99.90;;;;;;5092333;28;20048;-74
2023/05/06 10:08:27;;;;;;;12.30;9.13;;;18.50;99.90;;;;;;5075289;28;20051;-72
2023/05/06 10:10:53;;;;;;;14.20;9.07;;;18.60;99.90;;;;;;5092260;28;20495;-72
2023/05/06 10:13:20;;;;;;;12.63;9.88;;;18.60;99.90;;;;;;5101828;28;20032;-71
2023/05/06 10:15:48;;;;;;;13.98;8.57;;;18.80;99.90;;;;;;5100745;28;20054;-72
2023/05/06 10:18:18;;;;;;;12.88;9.27;;;18.90;99.90;;;;;;5091386;28;20085;-72
2023/05/06 10:20:45;;;;;;;11.52;8.60;;;19.00;99.90;;;;;;5092101;28;20078;-71
2023/05/06 10:23:39;;;;;;;9.90;7.60;;;19.20;99.90;;;;;;5091777;28;20492;-72
2023/05/06 10:26:06;;;;;;;;;;;19.40;99.90;;;;;;5102846;28;20051;-71
2023/05/06 10:28:38;;;;;;;11.43;7.72;;;19.40;99.90;;;;;;5101884;28;19920;-72
2023/05/06 10:31:06;;;;;;;11.07;8.60;;;19.30;99.90;;;;;;5076017;28;20032;-72
2023/05/06 10:33:32;;;;;;;11.68;8.43;;;19.20;99.90;;;;;;5092050;28;20036;-71
2023/05/06 10:36:08;;;;;;;9.55;7.05;;;19.10;99.90;;;;;;5091756;28;20044;-72
2023/05/06 10:38:45;;;;;;;9.88;6.65;;;19.20;99.90;;;;;;5091594;28;20496;-72
2023/05/06 10:41:12;;;;;;;7.70;6.22;;;19.20;99.90;;;;;;5091591;28;20040;-72
2023/05/06 10:43:43;;;;;;;8.65;6.03;;;19.10;99.90;;;;;;5091678;28;20123;-72
2023/05/06 10:46:14;;;;;;;6.85;5.88;;;19.20;99.90;;;;;;5091691;28;20048;-72
2023/05/06 10:49:03;;;;;;;8.10;6.25;;;19.20;99.90;;;;;;5091500;28;20445;-72
2023/05/06 10:51:32;;;;;;;8.93;6.07;;;19.10;99.90;;;;;;5091383;28;20127;-72
2023/05/06 10:54:01;;;;;;;7.95;5.40;;;19.00;99.90;;;;;;5092825;28;20028;-71
2023/05/06 10:56:35;;;;;;;11.45;5.88;;;19.00;99.90;;;;;;5092618;28;20081;-71
2023/05/06 10:59:10;;;;;;;7.75;5.15;;;19.00;99.90;;;;;;5092529;28;20526;-71
2023/05/06 11:01:37;;;;;;;7.82;6.18;;;19.00;99.90;;;;;;5074321;28;20059;-71
2023/05/06 11:04:08;;;;;;;10.82;6.60;;;19.20;99.90;;;;;;5091213;28;20050;-72
2023/05/06 11:06:41;;;;;;;8.40;6.18;;;19.50;99.90;;;;;;5096326;28;20194;-72
2023/05/06 11:09:16;;;;;;;8.02;5.70;;;19.50;99.90;;;;;;5097832;28;20051;-72
2023/05/06 11:12:00;;;;;;;7.97;5.78;;;19.60;99.90;;;;;;5090990;28;20122;-73
2023/05/06 11:14:34;;;;;;;10.45;6.75;;;19.30;99.90;;;;;;5090864;28;20028;-73
2023/05/06 11:17:04;;;;;;;8.98;6.68;;;19.20;99.90;;;;;;5099021;28;20101;-72
2023/05/06 11:19:39;;;;;;;9.93;6.63;;;19.00;99.90;;;;;;5098931;28;20085;-72
2023/05/06 11:22:05;;;;;;;9.60;6.55;;;18.90;99.90;;;;;;5076686;28;20044;-72
2023/05/06 11:24:41;;;;;;;11.05;6.70;;;18.70;99.90;;;;;;5092347;28;20055;-72
2023/05/06 11:27:08;;;;;;;12.45;8.15;;;18.60;99.90;;;;;;5098585;28;20445;-72
2023/05/06 11:29:34;;;;;;;10.75;8.77;;;18.50;99.90;;;;;;5085404;28;20053;-72
2023/05/06 11:32:00;;;;;;;12.82;7.47;;;18.40;99.90;;;;;;5102205;28;20197;-71
2023/05/06 11:34:30;;;;;;;12.40;7.47;;;18.40;99.90;;;;;;5112349;28;20494;-72
2023/05/06 11:37:05;;;;;;;13.18;8.30;;;18.30;99.90;;;;;;5110816;28;20384;-72
2023/05/06 11:39:35;;;;;;;12.52;7.95;;;18.20;99.90;;;;;;5107849;28;20035;-73
2023/05/06 11:42:06;;;;;;;10.05;7.25;;;18.20;99.90;;;;;;5110953;28;20046;-72
2023/05/06 11:44:36;;;;;;;10.68;7.18;;;18.20;99.90;;;;;;5110891;28;20050;-72
2023/05/06 11:47:04;;;;;;;9.07;6.53;;;18.20;99.90;;;;;;5110596;28;20044;-72
2023/05/06 11:49:41;;;;;;;10.05;7.10;;;18.20;99.90;;;;;;5104373;28;20123;-71
2023/05/06 11:52:08;;;;;;;9.80;6.13;;;18.20;99.90;;;;;;5110136;28;20085;-72
2023/05/06 11:54:37;;;;;;;10.18;6.90;;;18.20;99.90;;;;;;5110732;28;20075;-72
2023/05/06 11:57:02;;;;;;;9.48;7.45;;;18.20;99.90;;;;;;5104167;28;20031;-71
2023/05/06 11:59:36;;;;;;;9.88;6.68;;;18.10;99.90;;;;;;5102934;28;20027;-71
2023/05/06 12:02:11;;;;;;;9.07;6.55;;;18.10;99.90;;;;;;5101357;28;20036;-71
2023/05/06 12:04:48;;;;;;;10.50;7.53;;;18.10;99.90;;;;;;5102279;28;20491;-71
2023/05/06 12:07:15;;;;;;;11.07;8.23;;;18.10;99.90;;;;;;5099376;28;20044;-71
2023/05/06 12:09:48;;;;;;;13.13;8.90;;;18.10;99.90;;;;;;5099477;28;20414;-71
2023/05/06 12:12:21;;;;;;;11.82;8.38;;;18.10;99.90;;;;;;5100532;28;20569;-71
2023/05/06 12:14:49;;;;;;;12.98;7.65;;;18.10;99.90;;;;;;5098959;28;20044;-71
2023/05/06 12:17:15;;;;;;;9.98;8.40;;;18.10;99.90;;;;;;5083075;28;20505;-71
2023/05/06 12:19:41;;;;;;;12.43;7.35;;;18.10;99.90;;;;;;5104715;28;20043;-71
2023/05/06 12:22:13;;;;;;;10.50;7.78;;;18.10;99.90;;;;;;5093427;28;20387;-71
2023/05/06 12:24:39;;;;;;;13.18;8.88;;;18.10;99.90;;;;;;5104185;28;20042;-72
2023/05/06 12:27:04;;;;;;;14.30;9.60;;;18.20;99.90;;;;;;5076751;28;20044;-72
2023/05/06 12:29:31;;;;;;;13.25;9.85;;;18.20;99.90;;;;;;5109623;28;20035;-71
2023/05/06 12:32:08;;;;;;;14.57;9.55;;;18.10;99.90;;;;;;5109795;28;20036;-71
2023/05/06 12:34:40;;;;;;;14.48;10.13;;;18.10;99.90;;;;;;5093449;28;20035;-72
2023/05/06 12:37:10;;;;;;;15.43;11.25;;;18.00;99.90;;;;;;5093106;28;20119;-72
2023/05/06 12:39:37;;;;;;;10.93;8.07;;;17.90;99.90;;;;;;5110767;28;20543;-72